Gouwestroom — PDGR — position and weather

sailwx.info

Track history (hours):
 
Tides and Currents Weather Stations Pressure Air Temp Water Temp Dewpoint Dewpoint Depression Visibility Wind Speed Wind Dir Waves Ship Positions

Gouwestroom

Last reported at 2017-Jul-03 14:43 UTC. Time now 2017-Jul-26 00:39 UTC.
Position N 51°49' E 004°53'.
Warning: this ship's position is 22 days out of date.

Length 20 m; draft 2.2 m.

Type: Tug. MMSI: 246166000.

Date/timePositionNaut miles runAvg speedWind from/ knotsBaromVisibWave heightAir tempDewpointWater temp
2017-Jul-03 14:43N 51°49' E 004°53'0 0.0
2017-Jul-03 14:00N 51°49' E 004°53'0 0.0
2017-Jul-03 13:29N 51°49' E 004°53'0 0.0
2017-Jul-03 12:59N 51°49' E 004°53'0 0.0
2017-Jul-03 12:30N 51°49' E 004°53'0 0.0
2017-Jul-03 11:57N 51°49' E 004°53'0 0.0
2017-Jul-03 11:30N 51°49' E 004°53'0 0.0
2017-Jul-03 11:00N 51°49' E 004°53'0 0.0
2017-Jul-03 10:30N 51°49' E 004°53'0 0.0
2017-Jul-03 09:58N 51°49' E 004°53'0 0.0
2017-Jul-03 09:30N 51°49' E 004°53'1 1.4
2017-Jul-03 09:00N 51°49' E 004°52'4 6.9
2017-Jul-03 08:30N 51°49' E 004°46'3 7.1
2017-Jul-03 08:00N 51°49' E 004°40'8 8.9
2017-Jul-03 07:08N 51°50' E 004°28'0 0.0
2017-Jul-03 07:00N 51°50' E 004°28'2 3.8
2017-Jul-03 06:31N 51°51' E 004°25'3 6.2
2017-Jul-03 06:00N 51°52' E 004°20'3 6.1
2017-Jul-03 05:30N 51°54' E 004°17'3 6.8
2017-Jul-03 05:00N 51°56' E 004°13'3 6.3
2017-Jul-03 04:30N 51°58' E 004°08'3 6.2
2017-Jul-03 04:00N 51°59' E 004°04'3 5.8
2017-Jul-03 03:30N 51°60' E 003°59'4 7.1
2017-Jul-03 03:00N 51°59' E 003°53'4 8.0
2017-Jul-03 02:30N 51°58' E 003°47'53 8.7
2017-Jul-02 20:20N 51°37' E 002°28'510.1
2017-Jul-02 19:52N 51°33' E 002°23'4 9.9
2017-Jul-02 19:30N 51°30' E 002°20'5 9.9
2017-Jul-02 19:00N 51°26' E 002°15'5 9.3
2017-Jul-02 18:29N 51°22' E 002°12'4 8.8
2017-Jul-02 18:00N 51°19' E 002°08'4 8.7
2017-Jul-02 17:30N 51°15' E 002°04'4 8.0
2017-Jul-02 16:59N 51°12' E 001°59'4 7.8
2017-Jul-02 16:30N 51°10' E 001°54'4 7.3
2017-Jul-02 16:00N 51°08' E 001°49'3 6.9
2017-Jul-02 15:30N 51°06' E 001°45'3 6.5
2017-Jul-02 15:00N 51°04' E 001°41'  
Track history (hours):
 
Tides and Currents Weather Stations Pressure Air Temp Water Temp Dewpoint Dewpoint Depression Visibility Wind Speed Wind Dir Waves Ship Positions

Gouwestroom

Last reported at 2017-Jul-03 14:43 UTC. Time now 2017-Jul-26 00:39 UTC.
Position N 51°49' E 004°53'.
Warning: this ship's position is 22 days out of date.

Length 20 m; draft 2.2 m.

Type: Tug. MMSI: 246166000.

Date/timePositionNaut miles runAvg speedWind from/ knotsBaromVisibWave heightAir tempDewpointWater temp
2017-Jul-03 14:43N 51°49' E 004°53'0 0.0
2017-Jul-03 14:00N 51°49' E 004°53'0 0.0
2017-Jul-03 13:29N 51°49' E 004°53'0 0.0
2017-Jul-03 12:59N 51°49' E 004°53'0 0.0
2017-Jul-03 12:30N 51°49' E 004°53'0 0.0
2017-Jul-03 11:57N 51°49' E 004°53'0 0.0
2017-Jul-03 11:30N 51°49' E 004°53'0 0.0
2017-Jul-03 11:00N 51°49' E 004°53'0 0.0
2017-Jul-03 10:30N 51°49' E 004°53'0 0.0
2017-Jul-03 09:58N 51°49' E 004°53'0 0.0
2017-Jul-03 09:30N 51°49' E 004°53'1 1.4
2017-Jul-03 09:00N 51°49' E 004°52'4 6.9
2017-Jul-03 08:30N 51°49' E 004°46'3 7.1
2017-Jul-03 08:00N 51°49' E 004°40'8 8.9
2017-Jul-03 07:08N 51°50' E 004°28'0 0.0
2017-Jul-03 07:00N 51°50' E 004°28'2 3.8
2017-Jul-03 06:31N 51°51' E 004°25'3 6.2
2017-Jul-03 06:00N 51°52' E 004°20'3 6.1
2017-Jul-03 05:30N 51°54' E 004°17'3 6.8
2017-Jul-03 05:00N 51°56' E 004°13'3 6.3
2017-Jul-03 04:30N 51°58' E 004°08'3 6.2
2017-Jul-03 04:00N 51°59' E 004°04'3 5.8
2017-Jul-03 03:30N 51°60' E 003°59'4 7.1
2017-Jul-03 03:00N 51°59' E 003°53'4 8.0
2017-Jul-03 02:30N 51°58' E 003°47'53 8.7
2017-Jul-02 20:20N 51°37' E 002°28'510.1
2017-Jul-02 19:52N 51°33' E 002°23'4 9.9
2017-Jul-02 19:30N 51°30' E 002°20'5 9.9
2017-Jul-02 19:00N 51°26' E 002°15'5 9.3
2017-Jul-02 18:29N 51°22' E 002°12'4 8.8
2017-Jul-02 18:00N 51°19' E 002°08'4 8.7
2017-Jul-02 17:30N 51°15' E 002°04'4 8.0
2017-Jul-02 16:59N 51°12' E 001°59'4 7.8
2017-Jul-02 16:30N 51°10' E 001°54'4 7.3
2017-Jul-02 16:00N 51°08' E 001°49'3 6.9
2017-Jul-02 15:30N 51°06' E 001°45'3 6.5
2017-Jul-02 15:00N 51°04' E 001°41'  

Dump ship's entire track history